Погода Апукшинона 2 недели

Тверская область, Россия

23 мая-05 июня
  • 23мая
    Сегодня
    +6°
    +21°
    Ясно и безоблачно
    ВремяПогодаТемператураВлажностьДавлениеВетер, м/сВероятность осадков
    00:00Ясно и безоблачно+11°C52 %750 мм3.6 м/с2 %
    03:00Ясно и безоблачно+8°C60 %751 мм3.0 м/с2 %
    06:00Ясно и безоблачно+9°C64 %752 мм2.9 м/с2 %
    09:00Ясно и безоблачно+16°C51 %753 мм2.8 м/с2 %
    12:00Ясно и безоблачно+19°C37 %753 мм3.0 м/с2 %
    15:00Ясно и безоблачно+21°C34 %753 мм2.9 м/с2 %
    18:00Ясно и безоблачно+20°C37 %753 мм3.2 м/с2 %
    21:00Ясно и безоблачно+14°C62 %753 мм2.4 м/с2 %
  • 24мая
    Пятница
    +5°
    +21°
    Ясно и безоблачно
    ВремяПогодаТемператураВлажностьДавлениеВетер, м/сВероятность осадков
    00:00Ясно и безоблачно+10°C61 %754 мм2.5 м/с2 %
    03:00Ясно и безоблачно+7°C72 %755 мм2.3 м/с2 %
    06:00Ясно и безоблачно+8°C72 %756 мм2.2 м/с2 %
    09:00Ясно и безоблачно+15°C48 %757 мм2.3 м/с2 %
    12:00Ясно и безоблачно+19°C39 %757 мм2.4 м/с2 %
    15:00Ясно и безоблачно+20°C36 %756 мм3.0 м/с2 %
    18:00Ясно и безоблачно+20°C38 %755 мм2.6 м/с2 %
    21:00Ясно и безоблачно+15°C58 %755 мм2.1 м/с2 %
  • 25мая
    Суббота
    +7°
    +23°
    Ясно и безоблачно
    ВремяПогодаТемператураВлажностьДавлениеВетер, м/сВероятность осадков
    00:00Ясно и безоблачно+10°C60 %754 мм3.0 м/с2 %
    03:00Ясно и безоблачно+6°C66 %755 мм2.1 м/с2 %
    06:00Ясно и безоблачно+8°C72 %754 мм2.2 м/с2 %
    09:00Ясно и безоблачно+16°C55 %755 мм2.1 м/с2 %
    12:00Ясно и безоблачно+20°C40 %754 мм2.7 м/с2 %
    15:00Ясно и безоблачно+22°C36 %753 мм2.9 м/с2 %
    18:00Ясно и безоблачно+23°C38 %751 мм2.5 м/с2 %
    21:00Ясно и безоблачно+16°C69 %751 мм2.3 м/с2 %
  • 26мая
    Воскресенье
    +10°
    +26°
    Облачно с прояснениями
    ВремяПогодаТемператураВлажностьДавлениеВетер, м/сВероятность осадков
    00:00Ясно и безоблачно+11°C75 %750 мм2.1 м/с2 %
    03:00Ясно и безоблачно+8°C84 %750 мм1.8 м/с2 %
    06:00Ясно и безоблачно+10°C81 %750 мм2.3 м/с2 %
    09:00Ясно и безоблачно+19°C59 %751 мм1.9 м/с2 %
    12:00Небольшая облачность+24°C41 %751 мм2.3 м/с12 %
    15:00Облачно с прояснениями+25°C45 %750 мм3.2 м/с35 %
    18:00Облачно с прояснениями, небольшой дождь+22°C70 %751 мм2.6 м/с49 %
    21:00Небольшая облачность+19°C82 %751 мм2.5 м/с29 %
  • 27мая
    Понедельник
    +10°
    +24°
    Небольшая облачность
    ВремяПогодаТемператураВлажностьДавлениеВетер, м/сВероятность осадков
    00:00Ясно и безоблачно+14°C86 %752 мм3.9 м/с2 %
    03:00Ясно и безоблачно+11°C66 %753 мм3.2 м/с2 %
    06:00Ясно и безоблачно+11°C70 %753 мм2.9 м/с2 %
    09:00Ясно и безоблачно+18°C59 %754 мм2.6 м/с4 %
    12:00Ясно и безоблачно+21°C48 %754 мм2.8 м/с4 %
    15:00Небольшая облачность+23°C43 %753 мм2.1 м/с3 %
    18:00Ясно и безоблачно+23°C42 %753 мм3.2 м/с7 %
    21:00Ясно и безоблачно+19°C55 %753 мм3.3 м/с2 %
Мы используем cookies
Соглашаюсь